Mount Pleasant, MI (48804)

9:09 AM EST on January 17, 2017 (GMT -0500)
Glenwood Place | | Change Station
Active Advisory: Winter Weather Statement

Elev 784 ft 43.59 °N, 84.76 °W | Updated 3 minutes ago

Overcast
Overcast
32.5 °F
Feels Like 32 °F
N
0.0
Wind Variable Wind from North
Gusts 0.6 mph

Today
High -- | Low -- °F
--% Chance of Precip.
Yesterday
High -- | Low -- °F
Precip. -- in
Pressure 29.80 in
Visibility 4.0 miles
Clouds Overcast 400 ft
Windchill 32 °F
Dew Point 26 °F
Humidity 78%
Rainfall 0.00 in
Snow Depth Not available.
8:08 AM 5:30 PM
Waning Gibbous, 72% visible
METAR KMOP 171355Z AUTO 06007KT 4SM UP OVC004 00/00 A2980 RMK AO2 T00020000
Pressure 29.80 in
Visibility 4.0 miles
Clouds Overcast 400 ft
Windchill 32 °F
Dew Point 26 °F
Humidity 78%
Rainfall 0.00 in
Snow Depth Not available.
8:08 AM 5:30 PM
Waning Gibbous, 72% visible
METAR KMOP 171355Z AUTO 06007KT 4SM UP OVC004 00/00 A2980 RMK AO2 T00020000

Get Your Daily Forecast Email!

Thanks for signing up!

Be on the lookout for a verification email in your inbox.

You'll start receiving the daily forecast at 8 AM.

×

10-Day Weather Forecast

Almanac

Astronomy

Jan. 17, 2017 Rise Set
Actual Time
Civil Twilight
Nautical Twilight
Astronomical Twilight
Moon
Length of Visible Light
Length of Day
Tomorrow will be .
, % of the Moon is Illuminated

Today's Extremes

State Highs State Lows

Community

WunderPhotos

Upload Photos

1,962,540 photos uploaded!

WunderBlog® & News

Nearby

Air Quality

  Air Quality AQ Index Pollutant
Not available.

Snow Depth

Station Depth Elevation

Earthquake Activity

City Distance Mag. Time & Date
Minimum magnitude displayed is 2.5.

Coastal Water Temperatures

Place Temperature

Stations

Nearby Weather Stations

Station Location Temp. Windchill Dew Point Humidity Wind Precip. Elev Updated Type
                   

Watches & Warnings

Winter Weather Statement
Issued: 8:55 AM EST Jan. 17, 2017 – National Weather Service

... Winter Weather Advisory is cancelled...

The National Weather Service in Grand Rapids has cancelled the
Winter Weather Advisory.

Hazardous weather...

* precipitation is diminishing across the area... and will
   continue to do so through the morning.

* Temperatures have warmed up above freezing at most areas... and
   will remain above freezing through the day.

Impacts...

* dirt roads and roads with snow and ice packed on will likely
   remain very slick even as temperatures are above freezing.

* Main roads will likely see conditions improve as they are able
   to be treated.

Precautionary/preparedness actions...

* send reports to NWS Grand Rapids or visit weather.Gov/GRR for
   more information.